Time;durP1;ratioP1;P1;durP2;ratioP2;P2;SDS_P1;SDS_P2;PMS_P1;PMS_P2;Temp;Humidity;BMP_temperature;BMP_pressure;BME280_temperature;BME280_humidity;BME280_pressure;Samples;Min_cycle;Max_cycle;Signal;HPM_P1;HPM_P2
2020/12/16 00:00:20;;;;;;;18.90;16.17;;;;;;;2.48;100.00;95939.00;1040310;28;20417;-73
2020/12/16 00:00:50;;;;;;;18.30;15.55;;;;;;;2.45;100.00;95935.00;1040362;28;20256;-70
2020/12/16 00:01:21;;;;;;;19.85;16.30;;;;;;;2.45;100.00;95936.84;1040596;28;20025;-74
2020/12/16 00:01:52;;;;;;;19.95;16.60;;;;;;;2.42;100.00;95942.50;1040692;28;20485;-76
2020/12/16 00:02:23;;;;;;;18.27;16.17;;;;;;;2.43;100.00;95950.09;1040348;28;20056;-74
2020/12/16 00:02:53;;;;;;;18.48;15.75;;;;;;;2.45;100.00;95942.84;1040447;28;20271;-72
2020/12/16 00:03:24;;;;;;;19.52;16.33;;;;;;;2.44;100.00;95951.72;1040344;28;20477;-68
2020/12/16 00:03:54;;;;;;;21.35;16.08;;;;;;;2.44;100.00;95948.28;1040105;28;20033;-72
2020/12/16 00:04:25;;;;;;;18.75;15.07;;;;;;;2.48;100.00;95946.81;1040310;28;20421;-75
2020/12/16 00:04:57;;;;;;;18.10;16.20;;;;;;;2.49;100.00;95953.66;1040413;28;20033;-73
2020/12/16 00:05:27;;;;;;;18.45;16.05;;;;;;;2.47;100.00;95947.84;1040303;28;20029;-74
2020/12/16 00:05:58;;;;;;;18.60;16.02;;;;;;;2.47;100.00;95948.66;1040402;28;20359;-74
2020/12/16 00:06:28;;;;;;;18.98;16.85;;;;;;;2.51;100.00;95949.00;1040373;28;20029;-72
2020/12/16 00:06:59;;;;;;;19.48;15.43;;;;;;;2.48;100.00;95947.66;1040391;28;20029;-75
2020/12/16 00:07:30;;;;;;;18.50;16.50;;;;;;;2.47;100.00;95946.03;1040587;28;20059;-74
2020/12/16 00:08:00;;;;;;;18.45;15.88;;;;;;;2.48;100.00;95947.66;1040319;28;20053;-74
2020/12/16 00:08:31;;;;;;;16.13;14.38;;;;;;;2.49;100.00;95946.59;1040299;28;20492;-73
2020/12/16 00:09:01;;;;;;;19.58;16.48;;;;;;;2.53;100.00;95941.75;1040327;28;20409;-72
2020/12/16 00:09:32;;;;;;;19.45;16.52;;;;;;;2.52;100.00;95954.00;1040332;28;20017;-73
2020/12/16 00:10:04;;;;;;;16.98;14.98;;;;;;;2.49;100.00;95951.03;1044466;28;20025;-74
2020/12/16 00:10:35;;;;;;;19.08;15.93;;;;;;;2.48;100.00;95946.81;1044378;28;20023;-72
2020/12/16 00:11:05;;;;;;;18.65;16.40;;;;;;;2.50;100.00;95948.22;1040340;28;20267;-74
2020/12/16 00:11:36;;;;;;;20.45;16.63;;;;;;;2.48;100.00;95955.47;1040258;28;20024;-74
2020/12/16 00:12:06;;;;;;;17.60;15.10;;;;;;;2.46;100.00;95944.47;1036293;28;20033;-72
2020/12/16 00:12:38;;;;;;;18.80;15.25;;;;;;;2.47;100.00;95953.09;1036301;28;20025;-74
2020/12/16 00:13:10;;;;;;;18.98;16.38;;;;;;;2.46;100.00;95948.84;1032128;28;20053;-72
2020/12/16 00:13:41;;;;;;;17.30;15.35;;;;;;;2.48;100.00;95941.59;1036451;28;20265;-71
2020/12/16 00:14:11;;;;;;;20.77;16.48;;;;;;;2.46;100.00;95947.06;1040207;28;20252;-76
2020/12/16 00:14:44;;;;;;;17.20;15.38;;;;;;;2.46;100.00;95951.47;1040954;28;20477;-75
2020/12/16 00:15:15;;;;;;;17.90;14.98;;;;;;;2.46;100.00;95944.47;1048024;28;20024;-71
2020/12/16 00:15:46;;;;;;;19.95;16.17;;;;;;;2.44;100.00;95945.69;1044423;28;20819;-74
2020/12/16 00:16:16;;;;;;;19.00;15.32;;;;;;;2.38;100.00;95939.56;1044040;28;20024;-75
2020/12/16 00:16:47;;;;;;;17.58;15.80;;;;;;;2.41;100.00;95944.31;1040511;28;20260;-76
2020/12/16 00:17:17;;;;;;;19.25;15.93;;;;;;;2.42;100.00;95937.28;1040325;28;20029;-75
2020/12/16 00:17:50;;;;;;;17.92;15.75;;;;;;;2.42;100.00;95945.09;1040339;28;20033;-72
2020/12/16 00:18:21;;;;;;;20.23;14.32;;;;;;;2.46;100.00;95947.06;1040334;28;20021;-71
2020/12/16 00:18:51;;;;;;;18.75;16.15;;;;;;;2.46;100.00;95946.25;1039981;28;20264;-74
2020/12/16 00:19:22;;;;;;;18.42;15.77;;;;;;;2.43;100.00;95938.88;1040538;28;20037;-76
2020/12/16 00:19:52;;;;;;;20.15;16.35;;;;;;;2.47;100.00;95940.03;1040632;28;20074;-73
2020/12/16 00:20:23;;;;;;;17.23;15.25;;;;;;;2.46;100.00;95946.25;1040677;28;20497;-72
2020/12/16 00:20:54;;;;;;;17.33;15.23;;;;;;;2.44;100.00;95943.06;1040535;28;20029;-72
2020/12/16 00:21:24;;;;;;;19.98;16.17;;;;;;;2.42;100.00;95945.09;1040592;28;20112;-75
2020/12/16 00:21:58;;;;;;;17.05;15.20;;;;;;;2.41;100.00;95946.94;1040575;28;20041;-71
2020/12/16 00:22:28;;;;;;;21.23;16.30;;;;;;;2.35;100.00;95940.78;1040584;28;20108;-75
2020/12/16 00:22:59;;;;;;;19.40;16.55;;;;;;;2.34;100.00;95939.19;1040540;28;20260;-73
2020/12/16 00:23:30;;;;;;;19.20;16.02;;;;;;;2.33;100.00;95945.41;1040476;28;20041;-75
2020/12/16 00:24:00;;;;;;;17.73;15.50;;;;;;;2.35;100.00;95945.22;1040537;28;20026;-73
2020/12/16 00:24:31;;;;;;;17.90;15.23;;;;;;;2.38;100.00;95942.94;1040371;28;20260;-74
2020/12/16 00:25:01;;;;;;;22.23;17.67;;;;;;;2.34;100.00;95948.84;1040017;28;20049;-72
2020/12/16 00:25:32;;;;;;;18.60;15.57;;;;;;;2.31;100.00;95949.28;1040300;28;20037;-74
2020/12/16 00:26:03;;;;;;;19.70;17.13;;;;;;;2.30;100.00;95950.28;1036139;28;20442;-74
2020/12/16 00:26:33;;;;;;;22.02;17.98;;;;;;;2.29;100.00;95948.72;1036201;28;20034;-73
2020/12/16 00:27:04;;;;;;;20.60;16.80;;;;;;;2.28;100.00;95950.53;1036334;28;20042;-73
2020/12/16 00:27:34;;;;;;;17.98;16.00;;;;;;;2.26;100.00;95939.50;1040226;28;20461;-73
2020/12/16 00:28:05;;;;;;;17.73;15.82;;;;;;;2.30;100.00;95947.69;1040288;28;20030;-73
2020/12/16 00:28:35;;;;;;;19.58;16.17;;;;;;;2.26;100.00;95936.91;1040183;28;20494;-73
2020/12/16 00:29:06;;;;;;;19.08;16.20;;;;;;;2.33;100.00;95947.25;1035759;28;20021;-75
2020/12/16 00:29:39;;;;;;;20.73;16.95;;;;;;;2.32;100.00;95954.28;1036277;28;20084;-71
2020/12/16 00:30:10;;;;;;;20.30;17.02;;;;;;;2.28;100.00;95954.94;1040244;28;20033;-71
2020/12/16 00:30:40;;;;;;;20.63;17.00;;;;;;;2.27;100.00;95943.69;1040244;28;20260;-73
2020/12/16 00:31:12;;;;;;;19.13;15.73;;;;;;;2.29;100.00;95952.09;1040658;28;20022;-72
2020/12/16 00:31:43;;;;;;;19.33;16.65;;;;;;;2.26;100.00;95951.75;1040021;28;20128;-74
2020/12/16 00:32:13;;;;;;;21.92;17.73;;;;;;;2.24;100.00;95953.78;1040246;28;20359;-76
2020/12/16 00:32:43;;;;;;;21.85;18.40;;;;;;;2.19;100.00;95947.41;1040121;28;20091;-71
2020/12/16 00:33:16;;;;;;;22.33;17.23;;;;;;;2.26;100.00;95963.00;1040302;28;20021;-73
2020/12/16 00:33:46;;;;;;;16.33;14.63;;;;;;;2.28;100.00;95958.38;1040104;28;20029;-74
2020/12/16 00:34:17;;;;;;;19.13;16.65;;;;;;;2.30;100.00;95958.94;1039812;28;20260;-73
2020/12/16 00:34:47;;;;;;;19.50;16.80;;;;;;;2.34;100.00;95959.28;1040208;28;20060;-70
2020/12/16 00:35:18;;;;;;;21.60;16.40;;;;;;;2.36;100.00;95959.88;1040282;28;20025;-72
2020/12/16 00:35:48;;;;;;;18.98;16.85;;;;;;;2.35;100.00;95966.88;1036125;28;20025;-73
2020/12/16 00:36:20;;;;;;;21.05;17.52;;;;;;;2.32;100.00;95967.34;1035794;28;20467;-73
2020/12/16 00:36:51;;;;;;;19.45;16.92;;;;;;;2.34;100.00;95965.31;1036091;28;20033;-73
2020/12/16 00:37:21;;;;;;;19.92;16.95;;;;;;;2.34;100.00;95962.69;1032743;28;20726;-71
2020/12/16 00:37:52;;;;;;;22.45;17.38;;;;;;;2.30;100.00;95964.16;1035993;28;20113;-75
2020/12/16 00:38:22;;;;;;;20.00;16.60;;;;;;;2.34;100.00;95970.53;1036168;28;20022;-76
2020/12/16 00:38:52;;;;;;;19.90;16.85;;;;;;;2.36;100.00;95970.31;1032149;28;20041;-73
2020/12/16 00:39:23;;;;;;;18.90;16.85;;;;;;;2.36;100.00;95962.47;1032111;28;20084;-71
2020/12/16 00:39:54;;;;;;;19.98;17.27;;;;;;;2.41;100.00;95969.66;1028192;28;20030;-76
2020/12/16 00:40:24;;;;;;;19.45;16.35;;;;;;;2.41;100.00;95965.22;1028145;28;20031;-74
2020/12/16 00:40:55;;;;;;;18.10;15.77;;;;;;;2.35;100.00;95966.88;1032160;28;20026;-76
2020/12/16 00:41:30;;;;;;;18.85;16.02;;;;;;;2.37;100.00;95969.28;1032262;28;20093;-72
2020/12/16 00:42:00;;;;;;;17.73;15.15;;;;;;;2.39;100.00;95967.25;1036876;28;20048;-76
2020/12/16 00:42:30;;;;;;;17.77;14.68;;;;;;;2.45;100.00;95968.97;1040157;28;20764;-71
2020/12/16 00:43:01;;;;;;;18.67;15.82;;;;;;;2.47;100.00;95966.94;1040170;28;20030;-72
2020/12/16 00:43:31;;;;;;;16.17;14.52;;;;;;;2.43;100.00;95970.22;1040446;28;20493;-72
2020/12/16 00:44:03;;;;;;;18.92;16.33;;;;;;;2.45;100.00;95970.78;1040109;28;20029;-74
2020/12/16 00:44:34;;;;;;;16.20;14.48;;;;;;;2.47;100.00;95966.94;1040391;28;20033;-73
2020/12/16 00:45:05;;;;;;;19.30;15.70;;;;;;;2.46;100.00;95965.34;1040240;28;20256;-72
2020/12/16 00:45:35;;;;;;;16.95;14.13;;;;;;;2.54;100.00;95970.25;1036098;28;20034;-70
2020/12/16 00:46:05;;;;;;;17.25;14.30;;;;;;;2.56;100.00;95975.25;1036125;28;20344;-73
2020/12/16 00:46:36;;;;;;;17.45;15.57;;;;;;;2.50;100.00;95970.94;1036281;28;20033;-72
2020/12/16 00:47:06;;;;;;;17.17;14.30;;;;;;;2.52;100.00;95972.28;1040309;28;20072;-74
2020/12/16 00:47:37;;;;;;;17.15;14.48;;;;;;;2.54;100.00;95972.88;1040157;28;20034;-71
2020/12/16 00:48:07;;;;;;;19.60;15.77;;;;;;;2.50;100.00;95973.53;1040213;28;20386;-75
2020/12/16 00:48:38;;;;;;;17.15;15.32;;;;;;;2.51;100.00;95975.91;1040170;28;20026;-71
2020/12/16 00:49:08;;;;;;;17.60;14.95;;;;;;;2.48;100.00;95980.78;1039914;28;20097;-72
2020/12/16 00:49:41;;;;;;;18.77;14.48;;;;;;;2.54;100.00;95985.94;1040484;28;20029;-76
2020/12/16 00:50:11;;;;;;;18.15;15.50;;;;;;;2.56;100.00;95973.44;1040367;28;20025;-75
2020/12/16 00:50:42;;;;;;;18.98;15.63;;;;;;;2.51;100.00;95977.72;1040499;28;20276;-73
2020/12/16 00:51:13;;;;;;;16.27;14.27;;;;;;;2.55;100.00;95974.44;1040156;28;20029;-70
2020/12/16 00:51:43;;;;;;;17.30;15.50;;;;;;;2.50;100.00;95978.78;1040114;28;20036;-76
2020/12/16 00:52:14;;;;;;;17.95;15.63;;;;;;;2.49;100.00;95977.16;1040123;28;20036;-75
2020/12/16 00:52:44;;;;;;;15.60;13.95;;;;;;;2.51;100.00;95973.31;1040169;28;20044;-72
2020/12/16 00:53:15;;;;;;;18.00;15.43;;;;;;;2.54;100.00;95977.31;1040518;28;20407;-74
2020/12/16 00:53:45;;;;;;;19.25;15.73;;;;;;;2.61;100.00;95985.03;1040192;28;20033;-72
2020/12/16 00:54:16;;;;;;;16.25;14.05;;;;;;;2.62;100.00;95979.59;1040256;28;20057;-73
2020/12/16 00:54:46;;;;;;;17.88;15.02;;;;;;;2.65;100.00;95971.28;1040199;28;20490;-73
2020/12/16 00:55:17;;;;;;;16.50;14.80;;;;;;;2.64;100.00;95974.94;1036132;28;20030;-75
2020/12/16 00:55:47;;;;;;;17.25;15.43;;;;;;;2.66;100.00;95979.94;1035920;28;20494;-73
2020/12/16 00:56:18;;;;;;;16.58;14.77;;;;;;;2.68;100.00;95976.09;1031972;28;20022;-73
2020/12/16 00:56:48;;;;;;;18.67;15.80;;;;;;;2.68;100.00;95978.69;1032226;28;20569;-73
2020/12/16 00:57:19;;;;;;;18.27;14.43;;;;;;;2.69;100.00;95971.66;1036244;28;20021;-74
2020/12/16 00:57:49;;;;;;;15.55;13.82;;;;;;;2.68;100.00;95970.88;1040102;28;20120;-75
2020/12/16 00:58:20;;;;;;;17.05;14.23;;;;;;;2.69;100.00;95975.06;1039662;28;20030;-73
2020/12/16 00:58:51;;;;;;;15.57;13.90;;;;;;;2.72;100.00;95966.00;1039811;28;20021;-74
2020/12/16 00:59:21;;;;;;;15.57;13.88;;;;;;;2.69;100.00;95969.03;1040442;28;20028;-72
2020/12/16 00:59:52;;;;;;;16.83;14.38;;;;;;;2.66;100.00;95967.69;1040497;28;20415;-74
2020/12/16 01:00:22;;;;;;;16.15;13.75;;;;;;;2.68;100.00;95970.88;1040127;28;20022;-74
2020/12/16 01:00:53;;;;;;;19.50;15.00;;;;;;;2.64;100.00;95971.53;1040170;28;20037;-74
2020/12/16 01:01:23;;;;;;;17.55;14.50;;;;;;;2.61;100.00;95966.75;1040055;28;20471;-72
2020/12/16 01:01:54;;;;;;;17.30;15.50;;;;;;;2.57;100.00;95964.56;1040121;28;20508;-73
2020/12/16 01:02:24;;;;;;;18.83;15.65;;;;;;;2.56;100.00;95968.22;1040192;28;20021;-75
2020/12/16 01:02:55;;;;;;;18.65;16.05;;;;;;;2.48;100.00;95965.94;1040128;28;20025;-74
2020/12/16 01:03:25;;;;;;;21.15;16.50;;;;;;;2.41;100.00;95970.44;1035962;28;20411;-74
2020/12/16 01:03:56;;;;;;;18.17;15.55;;;;;;;2.40;100.00;95958.41;1035935;28;20037;-69
2020/12/16 01:04:26;;;;;;;19.58;17.00;;;;;;;2.41;100.00;95961.81;1035991;28;20022;-73
2020/12/16 01:04:57;;;;;;;17.80;15.35;;;;;;;2.40;100.00;95966.25;1036160;28;20036;-75
2020/12/16 01:05:27;;;;;;;20.58;17.27;;;;;;;2.40;100.00;95963.63;1040232;28;20509;-72
2020/12/16 01:05:58;;;;;;;21.65;17.48;;;;;;;2.42;100.00;95971.22;1040158;28;20465;-71
2020/12/16 01:06:29;;;;;;;21.10;17.05;;;;;;;2.40;100.00;95968.84;1040065;28;20025;-75
2020/12/16 01:06:59;;;;;;;19.67;17.15;;;;;;;2.40;100.00;95971.47;1040112;28;20048;-71
2020/12/16 01:07:30;;;;;;;20.63;17.73;;;;;;;2.43;100.00;95965.00;1040100;28;20025;-70
2020/12/16 01:08:00;;;;;;;20.38;17.58;;;;;;;2.43;100.00;95972.81;1040190;28;20108;-72
2020/12/16 01:08:31;;;;;;;18.75;16.70;;;;;;;2.43;100.00;95968.41;1040411;28;20021;-71
2020/12/16 01:09:01;;;;;;;19.05;16.25;;;;;;;2.37;100.00;95951.00;1040117;28;20031;-73
2020/12/16 01:09:32;;;;;;;19.42;16.95;;;;;;;2.38;100.00;95965.66;1040145;28;20454;-72
2020/12/16 01:10:03;;;;;;;21.52;17.85;;;;;;;2.34;100.00;95962.69;1040125;28;20030;-74
2020/12/16 01:10:33;;;;;;;21.45;17.48;;;;;;;2.33;100.00;95960.31;1039972;28;20022;-72
2020/12/16 01:11:04;;;;;;;23.20;19.30;;;;;;;2.34;100.00;95961.91;1040409;28;20062;-73
2020/12/16 01:11:35;;;;;;;20.33;17.08;;;;;;;2.32;100.00;95963.91;1040325;28;20028;-71
2020/12/16 01:12:06;;;;;;;20.25;17.58;;;;;;;2.30;100.00;95961.53;1040372;28;20017;-73
2020/12/16 01:12:39;;;;;;;19.75;16.42;;;;;;;2.27;100.00;95959.38;1040407;28;20256;-73
2020/12/16 01:13:09;;;;;;;21.42;17.75;;;;;;;2.26;100.00;95956.97;1040070;28;20379;-71
2020/12/16 01:13:40;;;;;;;22.70;17.95;;;;;;;2.24;100.00;95962.44;1039779;28;20248;-73
2020/12/16 01:14:10;;;;;;;20.08;17.02;;;;;;;2.25;100.00;95960.63;1036025;28;20364;-74
2020/12/16 01:14:41;;;;;;;20.88;17.80;;;;;;;2.23;100.00;95968.66;1036406;28;20022;-69
2020/12/16 01:15:16;;;;;;;24.60;18.35;;;;;;;2.21;100.00;95957.63;1040101;28;20389;-74
2020/12/16 01:15:46;;;;;;;22.20;18.05;;;;;;;2.19;100.00;95964.91;1040054;28;20033;-71
2020/12/16 01:16:17;;;;;;;23.52;17.35;;;;;;;2.16;100.00;95963.53;1040489;28;20339;-73
2020/12/16 01:16:49;;;;;;;23.60;19.25;;;;;;;2.16;100.00;95966.16;1040106;28;20025;-74
2020/12/16 01:17:20;;;;;;;22.25;18.23;;;;;;;2.15;100.00;95964.53;1032032;28;20527;-72
2020/12/16 01:17:50;;;;;;;27.98;20.73;;;;;;;2.08;100.00;95965.63;1031927;28;20317;-73
2020/12/16 01:18:21;;;;;;;28.00;21.13;;;;;;;2.01;100.00;95957.09;1032417;28;20065;-76
2020/12/16 01:18:51;;;;;;;27.98;21.15;;;;;;;2.00;100.00;95964.13;1036355;28;20018;-71
2020/12/16 01:19:22;;;;;;;32.85;22.15;;;;;;;1.93;100.00;95964.22;1043900;28;20021;-74
2020/12/16 01:19:53;;;;;;;30.00;21.42;;;;;;;1.94;100.00;95957.16;1044023;28;20029;-74
2020/12/16 01:20:23;;;;;;;32.90;22.67;;;;;;;1.88;100.00;95955.44;1040531;28;20025;-71
2020/12/16 01:20:54;;;;;;;30.95;22.00;;;;;;;1.88;100.00;95960.66;1039962;28;20087;-72
2020/12/16 01:21:24;;;;;;;31.77;21.60;;;;;;;1.88;100.00;95966.66;1040074;28;20047;-73
2020/12/16 01:21:55;;;;;;;34.00;22.75;;;;;;;1.89;100.00;95963.06;1040010;28;20449;-74
2020/12/16 01:22:25;;;;;;;31.25;22.45;;;;;;;1.86;100.00;95962.69;1032096;28;20482;-73
2020/12/16 01:22:56;;;;;;;34.45;23.50;;;;;;;1.83;100.00;95956.09;1036000;28;20030;-74
2020/12/16 01:23:26;;;;;;;35.30;23.63;;;;;;;1.82;100.00;95957.09;1035967;28;20052;-71
2020/12/16 01:23:57;;;;;;;35.38;23.42;;;;;;;1.84;100.00;95964.72;1036139;28;20427;-73
2020/12/16 01:24:28;;;;;;;34.17;23.10;;;;;;;1.83;100.00;95957.94;1040452;28;20025;-74
2020/12/16 01:24:58;;;;;;;34.92;24.20;;;;;;;1.78;100.00;95959.38;1040026;28;20026;-75
2020/12/16 01:25:28;;;;;;;38.67;23.85;;;;;;;1.77;100.00;95959.59;1040138;28;20014;-74
2020/12/16 01:25:59;;;;;;;38.53;25.92;;;;;;;1.76;100.00;95957.97;1040084;28;20088;-72
2020/12/16 01:26:40;;;;;;;37.20;26.13;;;;;;;1.69;100.00;95963.28;1039940;28;20549;-72
2020/12/16 01:27:13;;;;;;;38.78;25.10;;;;;;;1.70;100.00;95959.63;1040453;28;20061;-71
2020/12/16 01:27:43;;;;;;;40.92;27.25;;;;;;;1.71;100.00;95963.84;1039949;28;20850;-72
2020/12/16 01:28:14;;;;;;;36.95;25.67;;;;;;;1.72;100.00;95967.25;1040077;28;20266;-69
2020/12/16 01:28:44;;;;;;;42.08;27.20;;;;;;;1.73;100.00;95963.66;1039773;28;20017;-74
2020/12/16 01:29:15;;;;;;;43.15;26.48;;;;;;;1.75;100.00;95964.22;1035988;28;20507;-73
2020/12/16 01:29:46;;;;;;;38.17;26.58;;;;;;;1.72;100.00;95962.84;1040117;28;20485;-74
2020/12/16 01:30:16;;;;;;;44.53;27.35;;;;;;;1.73;100.00;95958.44;1040072;28;20255;-75
2020/12/16 01:30:47;;;;;;;47.90;29.27;;;;;;;1.72;100.00;95956.81;1040080;28;20014;-73
2020/12/16 01:31:17;;;;;;;40.28;26.73;;;;;;;1.73;100.00;95958.44;1040039;28;20131;-73
2020/12/16 01:31:48;;;;;;;40.72;27.75;;;;;;;1.73;100.00;95950.59;1039955;28;20021;-73
2020/12/16 01:32:19;;;;;;;44.90;27.75;;;;;;;1.73;100.00;95948.00;1040134;28;20485;-72
2020/12/16 01:32:50;;;;;;;44.20;27.98;;;;;;;1.70;100.00;95949.22;1036118;28;20265;-73
2020/12/16 01:33:21;;;;;;;44.72;28.75;;;;;;;1.71;100.00;95952.63;1040015;28;20018;-69
2020/12/16 01:33:52;;;;;;;46.58;29.65;;;;;;;1.69;100.00;95950.25;1040016;28;20761;-75
2020/12/16 01:34:23;;;;;;;44.00;28.45;;;;;;;1.69;100.00;95952.84;1039827;28;20022;-75
2020/12/16 01:34:53;;;;;;;48.92;30.02;;;;;;;1.69;100.00;95958.06;1040300;28;20347;-74
2020/12/16 01:35:24;;;;;;;45.13;29.83;;;;;;;1.67;100.00;95954.09;1040344;28;20451;-75
2020/12/16 01:35:55;;;;;;;47.83;28.60;;;;;;;1.64;100.00;95952.69;1039943;28;20033;-74
2020/12/16 01:36:25;;;;;;;54.72;31.58;;;;;;;1.64;100.00;95957.13;1040095;28;20025;-73
2020/12/16 01:36:56;;;;;;;49.17;31.27;;;;;;;1.68;100.00;95953.06;1040173;28;20476;-75
2020/12/16 01:37:26;;;;;;;48.60;30.55;;;;;;;1.68;100.00;95953.84;1035994;28;20025;-76
2020/12/16 01:37:57;;;;;;;47.22;30.52;;;;;;;1.68;100.00;95959.06;1035934;28;20029;-76
2020/12/16 01:38:27;;;;;;;45.50;29.88;;;;;;;1.68;100.00;95959.06;1035992;28;20033;-75
2020/12/16 01:38:58;;;;;;;49.92;30.05;;;;;;;1.64;100.00;95957.91;1036017;28;20026;-72
2020/12/16 01:39:28;;;;;;;50.65;31.77;;;;;;;1.63;100.00;95961.53;1040090;28;20326;-76
2020/12/16 01:39:59;;;;;;;46.58;29.70;;;;;;;1.66;100.00;95958.47;1040025;28;20047;-71
2020/12/16 01:40:30;;;;;;;44.60;28.95;;;;;;;1.69;100.00;95959.88;1040419;28;20053;-75
2020/12/16 01:41:06;;;;;;;47.22;30.48;;;;;;;1.72;100.00;95967.25;1040048;28;20466;-75
2020/12/16 01:41:40;;;;;;;41.80;27.35;;;;;;;1.70;100.00;95962.25;1036035;28;20026;-73
2020/12/16 01:42:13;;;;;;;45.13;27.90;;;;;;;1.72;100.00;95962.03;1035947;28;20245;-74
2020/12/16 01:42:43;;;;;;;47.20;29.75;;;;;;;1.69;100.00;95958.06;1037669;28;20272;-75
2020/12/16 01:43:14;;;;;;;43.30;27.88;;;;;;;1.71;100.00;95963.06;1040100;28;20292;-74
2020/12/16 01:43:45;;;;;;;43.80;28.23;;;;;;;1.71;100.00;95963.06;1040024;28;20032;-73
2020/12/16 01:44:20;;;;;;;46.80;29.17;;;;;;;1.72;100.00;95962.03;1040313;28;20018;-77
2020/12/16 01:44:50;;;;;;;45.55;28.88;;;;;;;1.70;100.00;95959.63;1040872;28;20024;-75
2020/12/16 01:45:22;;;;;;;44.05;28.08;;;;;;;1.72;100.00;95962.03;1041140;28;20275;-72
2020/12/16 01:45:52;;;;;;;46.30;29.13;;;;;;;1.71;100.00;95956.03;1040859;28;20057;-75
2020/12/16 01:46:23;;;;;;;49.83;31.92;;;;;;;1.69;100.00;95960.66;1036524;28;20257;-75
2020/12/16 01:46:56;;;;;;;53.47;31.42;;;;;;;1.67;100.00;95960.09;1032802;28;20037;-72
2020/12/16 01:47:26;;;;;;;48.60;29.98;;;;;;;1.68;100.00;95960.88;1025105;28;20518;-71
2020/12/16 01:47:56;;;;;;;45.60;29.25;;;;;;;1.65;100.00;95959.50;1029046;28;20259;-74
2020/12/16 01:48:27;;;;;;;47.55;28.23;;;;;;;1.63;100.00;95951.09;1033079;28;20876;-71
2020/12/16 01:48:57;;;;;;;46.90;30.35;;;;;;;1.64;100.00;95950.09;1037120;28;20064;-72
2020/12/16 01:49:28;;;;;;;47.38;28.58;;;;;;;1.65;100.00;95956.91;1036412;28;20022;-75
2020/12/16 01:49:58;;;;;;;47.70;28.85;;;;;;;1.65;100.00;95959.50;1036845;28;20037;-74
2020/12/16 01:50:29;;;;;;;45.83;28.80;;;;;;;1.62;100.00;95953.94;1036806;28;20022;-75
2020/12/16 01:50:59;;;;;;;48.47;29.50;;;;;;;1.62;100.00;95949.50;1032843;28;20096;-73
2020/12/16 01:51:30;;;;;;;44.70;28.92;;;;;;;1.62;100.00;95956.53;1036734;28;20093;-74
2020/12/16 01:52:04;;;;;;;48.17;29.80;;;;;;;1.61;100.00;95949.75;1028665;28;20023;-73
2020/12/16 01:52:34;;;;;;;43.90;29.05;;;;;;;1.61;100.00;95952.34;1029706;28;20026;-74
2020/12/16 01:53:05;;;;;;;47.08;28.52;;;;;;;1.59;100.00;95948.13;1028673;28;20766;-70
2020/12/16 01:53:35;;;;;;;51.50;29.95;;;;;;;1.57;100.00;95947.56;1025786;28;20031;-74
2020/12/16 01:54:06;;;;;;;43.95;28.10;;;;;;;1.58;100.00;95951.75;1024731;28;20015;-71
2020/12/16 01:54:37;;;;;;;46.08;30.17;;;;;;;1.60;100.00;95948.91;1024892;28;20027;-74
2020/12/16 01:55:09;;;;;;;46.97;30.00;;;;;;;1.58;100.00;95945.72;1028991;28;20270;-75
2020/12/16 01:55:39;;;;;;;42.92;29.05;;;;;;;1.60;100.00;95948.91;1033347;28;20467;-74
2020/12/16 01:56:11;;;;;;;43.33;29.35;;;;;;;1.62;100.00;95956.53;1036718;28;20340;-73
2020/12/16 01:56:41;;;;;;;48.25;28.77;;;;;;;1.56;100.00;95948.56;1036708;28;20125;-73
2020/12/16 01:57:12;;;;;;;45.90;30.27;;;;;;;1.54;100.00;95949.78;1028907;28;20273;-76
2020/12/16 01:57:45;;;;;;;46.40;30.13;;;;;;;1.52;100.00;95955.22;1033047;28;20502;-74
2020/12/16 01:58:16;;;;;;;45.97;28.30;;;;;;;1.50;100.00;95954.63;1032718;28;20261;-74
2020/12/16 01:58:46;;;;;;;43.40;28.98;;;;;;;1.57;100.00;95954.59;1029158;28;20274;-73
2020/12/16 01:59:17;;;;;;;47.85;30.48;;;;;;;1.52;100.00;95954.44;1028569;28;20381;-75
2020/12/16 01:59:47;;;;;;;42.25;28.13;;;;;;;1.53;100.00;95953.44;1024845;28;20027;-74
2020/12/16 02:00:18;;;;;;;45.58;28.13;;;;;;;1.49;100.00;95952.28;1020901;29;20028;-74
2020/12/16 02:00:48;;;;;;;47.88;30.45;;;;;;;1.49;100.00;95949.66;1024906;28;20496;-74
2020/12/16 02:01:21;;;;;;;52.45;30.73;;;;;;;1.51;100.00;95955.47;1032631;28;20061;-75
2020/12/16 02:01:53;;;;;;;56.53;32.45;;;;;;;1.54;100.00;95949.78;1029464;28;20073;-74
2020/12/16 02:02:23;;;;;;;52.45;30.80;;;;;;;1.49;100.00;95949.66;1033189;28;20678;-73
2020/12/16 02:02:54;;;;;;;52.08;30.63;;;;;;;1.47;100.00;95949.88;1028585;28;20305;-74
2020/12/16 02:03:24;;;;;;;54.42;31.02;;;;;;;1.47;100.00;95954.31;1040779;28;20033;-74
2020/12/16 02:03:55;;;;;;;47.33;30.95;;;;;;;1.46;100.00;95948.25;1036701;28;20026;-73
2020/12/16 02:04:25;;;;;;;49.30;31.63;;;;;;;1.47;100.00;95951.69;1028473;28;20038;-75
2020/12/16 02:04:56;;;;;;;51.25;30.45;;;;;;;1.43;100.00;95953.94;1024494;29;20047;-75
2020/12/16 02:05:26;;;;;;;48.55;30.63;;;;;;;1.44;100.00;95952.09;1024745;28;20023;-74
2020/12/16 02:05:57;;;;;;;54.50;32.50;;;;;;;1.40;100.00;95951.75;1024920;28;20535;-75
2020/12/16 02:06:27;;;;;;;53.42;31.75;;;;;;;1.39;100.00;95955.38;1028635;28;20014;-72
2020/12/16 02:06:58;;;;;;;49.97;30.90;;;;;;;1.36;100.00;95947.97;1032571;28;20590;-75
2020/12/16 02:07:29;;;;;;;49.60;30.13;;;;;;;1.37;100.00;95950.38;1032538;28;20474;-72
2020/12/16 02:08:00;;;;;;;47.05;30.27;;;;;;;1.36;100.00;95948.75;1032666;28;20034;-76
2020/12/16 02:08:30;;;;;;;46.85;29.13;;;;;;;1.35;100.00;95952.41;1024511;28;20034;-75
2020/12/16 02:09:08;;;;;;;47.45;29.38;;;;;;;1.35;100.00;95946.41;1028644;28;20631;-74
2020/12/16 02:09:46;;;;;;;49.83;30.45;;;;;;;1.34;100.00;95950.78;1028742;28;20106;-74
2020/12/16 02:10:16;;;;;;;48.63;29.58;;;;;;;1.34;100.00;95948.19;1030743;28;20267;-74
2020/12/16 02:10:47;;;;;;;46.88;28.85;;;;;;;1.34;100.00;95948.19;1038677;28;20296;-75
2020/12/16 02:11:17;;;;;;;45.13;28.80;;;;;;;1.34;100.00;95950.78;1040804;28;20386;-75
2020/12/16 02:11:48;;;;;;;47.00;28.20;;;;;;;1.32;100.00;95944.19;1040666;28;20280;-75
2020/12/16 02:12:21;;;;;;;43.90;28.80;;;;;;;1.34;100.00;95942.97;1036667;28;20026;-74
2020/12/16 02:12:52;;;;;;;50.83;32.08;;;;;;;1.32;100.00;95941.59;1036686;28;20081;-75
2020/12/16 02:13:22;;;;;;;47.15;29.75;;;;;;;1.31;100.00;95945.19;1036239;28;20307;-73
2020/12/16 02:13:53;;;;;;;47.20;30.17;;;;;;;1.29;100.00;95942.00;1037242;28;20068;-73
2020/12/16 02:14:23;;;;;;;55.17;32.38;;;;;;;1.27;100.00;95944.03;1040834;28;20048;-74
2020/12/16 02:14:54;;;;;;;52.13;31.60;;;;;;;1.26;100.00;95948.47;1040754;28;20033;-73
2020/12/16 02:15:24;;;;;;;51.33;30.17;;;;;;;1.25;100.00;95944.28;1036570;28;20018;-73
2020/12/16 02:15:55;;;;;;;54.08;31.20;;;;;;;1.24;100.00;95947.09;1036739;28;20048;-74
2020/12/16 02:16:25;;;;;;;59.00;32.58;;;;;;;1.23;100.00;95942.88;1040858;28;20013;-72
2020/12/16 02:16:56;;;;;;;61.70;33.15;;;;;;;1.17;100.00;95936.75;1040733;28;20026;-73
2020/12/16 02:17:26;;;;;;;56.08;31.25;;;;;;;1.18;100.00;95943.53;1040746;28;20025;-71
2020/12/16 02:17:56;;;;;;;55.75;32.05;;;;;;;1.18;100.00;95938.31;1040533;28;20429;-71
2020/12/16 02:18:27;;;;;;;54.67;32.15;;;;;;;1.17;100.00;95942.75;1036656;28;20022;-74
2020/12/16 02:18:57;;;;;;;59.67;33.53;;;;;;;1.15;100.00;95942.16;1028633;28;20039;-74
2020/12/16 02:19:29;;;;;;;51.60;30.33;;;;;;;1.15;100.00;95936.13;1032483;28;20022;-73
2020/12/16 02:20:01;;;;;;;55.00;32.40;;;;;;;1.14;100.00;95942.38;1028818;28;20530;-75
2020/12/16 02:20:31;;;;;;;50.20;30.13;;;;;;;1.15;100.00;95938.72;1033531;28;20419;-71
2020/12/16 02:21:02;;;;;;;54.28;32.03;;;;;;;1.12;100.00;95936.56;1040738;28;20652;-71
2020/12/16 02:21:33;;;;;;;53.83;32.38;;;;;;;1.12;100.00;95942.56;1040077;28;20029;-71
2020/12/16 02:22:04;;;;;;;53.08;31.08;;;;;;;1.11;100.00;95942.78;1040803;28;20021;-71